createdAt,value
2019-01-03T00:01:57.964Z,3.00
2019-01-03T00:05:01.518Z,7.53
2019-01-03T00:07:48.700Z,2.23
2019-01-03T00:10:33.035Z,6.17
2019-01-03T00:13:34.355Z,2.23
2019-01-03T00:16:26.055Z,1.45
2019-01-03T00:19:13.300Z,3.90
2019-01-03T00:22:00.538Z,3.93
2019-01-03T00:24:55.715Z,4.10
2019-01-03T00:27:57.086Z,2.00
2019-01-03T00:30:44.372Z,6.37
2019-01-03T00:33:31.804Z,0.68
2019-01-03T00:36:19.638Z,2.03
2019-01-03T00:39:06.485Z,4.43
2019-01-03T00:42:07.252Z,3.03
2019-01-03T00:45:01.847Z,4.73
2019-01-03T00:47:52.137Z,2.70
2019-01-03T00:50:40.874Z,6.63
2019-01-03T00:53:22.389Z,4.70
2019-01-03T00:56:07.773Z,3.43
2019-01-03T00:58:55.099Z,3.40
2019-01-03T01:01:57.202Z,7.00
2019-01-03T01:04:52.388Z,4.07
2019-01-03T01:07:40.498Z,5.27
2019-01-03T01:10:31.603Z,4.23
2019-01-03T01:13:18.692Z,8.00
2019-01-03T01:16:05.744Z,2.87
2019-01-03T01:18:55.659Z,1.43
2019-01-03T01:21:39.129Z,5.03
2019-01-03T01:24:29.161Z,1.03
2019-01-03T01:27:10.248Z,5.93
2019-01-03T01:29:57.673Z,5.97
2019-01-03T01:32:45.286Z,4.43
2019-01-03T01:35:33.226Z,7.93
2019-01-03T01:38:17.811Z,8.37
2019-01-03T01:41:19.795Z,9.50
2019-01-03T01:44:19.476Z,5.67
2019-01-03T01:47:17.712Z,1.63
2019-01-03T01:50:09.416Z,4.30
2019-01-03T01:52:57.959Z,3.27
2019-01-03T01:55:57.803Z,8.87
2019-01-03T01:58:58.957Z,7.67
2019-01-03T02:01:42.190Z,9.37
2019-01-03T02:04:42.785Z,2.85
2019-01-03T02:07:29.782Z,3.87
2019-01-03T02:10:22.486Z,2.37
2019-01-03T02:13:09.614Z,7.00
2019-01-03T02:15:54.596Z,3.50
2019-01-03T02:18:45.259Z,6.37
2019-01-03T02:21:32.941Z,2.10
2019-01-03T02:24:11.185Z,8.87
2019-01-03T02:27:02.802Z,5.90
2019-01-03T02:30:04.563Z,4.00
2019-01-03T02:32:46.089Z,8.07
2019-01-03T02:35:49.951Z,6.90
2019-01-03T02:38:37.347Z,3.77
2019-01-03T02:41:24.624Z,2.97
2019-01-03T02:44:17.369Z,6.20
2019-01-03T02:47:01.295Z,3.87
2019-01-03T02:49:43.205Z,3.50
2019-01-03T02:52:35.016Z,8.07
2019-01-03T02:55:34.309Z,1.57
2019-01-03T02:58:26.170Z,8.43
2019-01-03T03:01:15.198Z,8.30
2019-01-03T03:04:10.177Z,2.73
2019-01-03T03:06:57.765Z,13.20
2019-01-03T03:09:58.581Z,7.10
2019-01-03T03:12:53.202Z,4.07
2019-01-03T03:15:45.063Z,7.10
2019-01-03T03:18:27.933Z,6.07
2019-01-03T03:21:19.654Z,3.23
2019-01-03T03:23:56.530Z,6.95
2019-01-03T03:26:38.541Z,4.27
2019-01-03T03:29:38.305Z,8.23
2019-01-03T03:32:31.105Z,6.43
2019-01-03T03:35:20.874Z,10.10
2019-01-03T03:38:05.929Z,14.03
2019-01-03T03:40:54.474Z,6.23
2019-01-03T03:43:43.301Z,3.67
2019-01-03T03:46:31.095Z,7.47
2019-01-03T03:49:28.254Z,9.67
2019-01-03T03:52:15.869Z,5.43
2019-01-03T03:55:04.990Z,6.33
2019-01-03T03:57:59.618Z,4.47
2019-01-03T04:00:57.397Z,8.57
2019-01-03T04:03:44.486Z,4.47
2019-01-03T04:06:34.658Z,4.53
2019-01-03T04:09:39.322Z,7.03
2019-01-03T04:12:37.269Z,9.27
2019-01-03T04:15:34.790Z,3.30
2019-01-03T04:18:22.197Z,7.33
2019-01-03T04:21:15.256Z,10.68
2019-01-03T04:24:02.713Z,5.85
2019-01-03T04:26:59.714Z,4.03
2019-01-03T04:29:51.201Z,6.43
2019-01-03T04:32:39.142Z,4.83
2019-01-03T04:35:42.994Z,5.25
2019-01-03T04:38:37.539Z,5.67
2019-01-03T04:41:24.751Z,10.50
2019-01-03T04:44:09.659Z,4.30
2019-01-03T04:46:49.920Z,8.23
2019-01-03T04:49:44.825Z,7.17
2019-01-03T04:52:32.283Z,5.33
2019-01-03T04:55:19.567Z,3.27
2019-01-03T04:58:07.121Z,7.33
2019-01-03T05:01:04.866Z,4.60
2019-01-03T05:04:09.270Z,9.77
2019-01-03T05:07:09.690Z,10.50
2019-01-03T05:09:56.249Z,7.20
2019-01-03T05:12:37.261Z,8.30
2019-01-03T05:15:15.512Z,6.45
2019-01-03T05:18:02.832Z,5.97
2019-01-03T05:20:51.686Z,9.40
2019-01-03T05:23:47.668Z,6.00
2019-01-03T05:26:28.339Z,6.80
2019-01-03T05:29:15.755Z,9.20
2019-01-03T05:32:02.090Z,8.87
2019-01-03T05:34:57.176Z,6.03
2019-01-03T05:37:39.847Z,5.73
2019-01-03T05:40:27.247Z,12.53
2019-01-03T05:43:16.096Z,4.53
2019-01-03T05:46:21.425Z,7.87
2019-01-03T05:49:25.546Z,6.37
2019-01-03T05:52:10.364Z,4.67
2019-01-03T05:55:14.745Z,4.47
2019-01-03T05:58:08.932Z,8.80
2019-01-03T06:00:51.227Z,7.60
2019-01-03T06:03:50.538Z,7.07
2019-01-03T06:06:41.795Z,5.08
2019-01-03T06:09:33.796Z,8.95
2019-01-03T06:12:13.304Z,8.67
2019-01-03T06:15:10.945Z,9.70
2019-01-03T06:17:55.029Z,7.10
2019-01-03T06:20:59.015Z,5.47
2019-01-03T06:24:06.859Z,6.90
2019-01-03T06:27:13.858Z,9.17
2019-01-03T06:29:58.490Z,7.58
2019-01-03T06:32:53.164Z,9.00
2019-01-03T06:35:44.060Z,6.97
2019-01-03T06:38:23.662Z,7.33
2019-01-03T06:41:13.226Z,7.57
2019-01-03T06:44:00.847Z,4.53
2019-01-03T06:46:59.671Z,8.17
2019-01-03T06:49:58.848Z,5.17
2019-01-03T06:52:46.428Z,8.93
2019-01-03T06:55:41.163Z,9.47
2019-01-03T06:58:29.982Z,7.10
2019-01-03T07:01:27.772Z,6.17
2019-01-03T07:04:22.313Z,8.77
2019-01-03T07:07:19.215Z,8.23
2019-01-03T07:10:11.039Z,8.47
2019-01-03T07:13:02.049Z,7.50
2019-01-03T07:15:47.142Z,7.20
2019-01-03T07:18:45.989Z,6.45
2019-01-03T07:21:32.275Z,7.43
2019-01-03T07:24:35.850Z,6.12
2019-01-03T07:27:42.968Z,7.43
2019-01-03T07:30:30.365Z,17.33
2019-01-03T07:33:18.042Z,9.38
2019-01-03T07:36:17.924Z,9.97
2019-01-03T07:39:09.810Z,14.60
2019-01-03T07:42:08.285Z,13.53
2019-01-03T07:44:56.106Z,12.97
2019-01-03T07:47:45.411Z,7.57
2019-01-03T07:50:48.931Z,12.95
2019-01-03T07:53:32.412Z,10.83
2019-01-03T07:56:20.019Z,13.83
2019-01-03T07:59:14.172Z,14.63
2019-01-03T08:02:03.290Z,7.25
2019-01-03T08:04:51.279Z,8.20
2019-01-03T08:07:47.936Z,9.47
2019-01-03T08:10:48.474Z,15.00
2019-01-03T08:13:40.080Z,13.43
2019-01-03T08:16:44.859Z,13.17
2019-01-03T08:19:35.294Z,7.30
2019-01-03T08:22:29.642Z,16.97
2019-01-03T08:25:24.572Z,8.20
2019-01-03T08:28:11.895Z,8.10
2019-01-03T08:30:59.514Z,9.27
2019-01-03T08:34:01.186Z,13.73
2019-01-03T08:37:08.497Z,19.57
2019-01-03T08:39:58.183Z,10.10
2019-01-03T08:42:52.803Z,9.93
2019-01-03T08:45:47.629Z,9.80
2019-01-03T08:48:35.124Z,14.47
2019-01-03T08:51:22.974Z,9.63
2019-01-03T08:54:17.474Z,11.37
2019-01-03T08:57:20.423Z,15.37
2019-01-03T09:00:21.187Z,10.43
2019-01-03T09:03:08.312Z,11.60
2019-01-03T09:05:56.115Z,16.30
2019-01-03T09:08:50.181Z,13.38
2019-01-03T09:11:48.048Z,11.20
2019-01-03T09:14:39.942Z,12.43
2019-01-03T09:17:26.955Z,15.67
2019-01-03T09:20:14.018Z,11.75
2019-01-03T09:23:02.540Z,10.70
2019-01-03T09:26:00.358Z,20.53
2019-01-03T09:28:47.514Z,9.87
2019-01-03T09:31:34.927Z,16.27
2019-01-03T09:34:30.258Z,16.83
2019-01-03T09:37:17.710Z,23.50
2019-01-03T09:40:06.056Z,17.52
2019-01-03T09:42:53.038Z,17.40
2019-01-03T09:45:22.881Z,23.20
2019-01-03T09:47:52.383Z,20.80
2019-01-03T09:50:22.163Z,21.43
2019-01-03T09:52:52.259Z,22.10
2019-01-03T09:55:22.443Z,30.30
2019-01-03T09:57:52.614Z,52.63
2019-01-03T10:00:22.235Z,28.00
2019-01-03T10:02:51.751Z,18.60
2019-01-03T10:05:22.067Z,24.63
2019-01-03T10:07:52.390Z,26.42
2019-01-03T10:10:21.966Z,42.07
2019-01-03T10:12:51.509Z,31.90
2019-01-03T10:15:22.506Z,27.57
2019-01-03T10:17:52.596Z,25.40
2019-01-03T10:20:22.309Z,35.33
2019-01-03T10:22:52.081Z,41.03
2019-01-03T10:25:21.865Z,42.50
2019-01-03T10:27:51.634Z,33.13
2019-01-03T10:30:21.453Z,46.33
2019-01-03T10:32:51.034Z,33.70
2019-01-03T10:35:20.680Z,35.73
2019-01-03T10:37:50.337Z,37.20
2019-01-03T10:40:20.453Z,30.48
2019-01-03T10:42:50.675Z,28.07
2019-01-03T10:45:20.208Z,38.00
2019-01-03T10:47:49.685Z,38.73
2019-01-03T10:50:19.167Z,55.35
2019-01-03T10:52:49.112Z,38.57
2019-01-03T10:55:19.394Z,37.27
2019-01-03T10:57:49.016Z,39.57
2019-01-03T11:00:18.522Z,34.87
2019-01-03T11:02:48.743Z,32.90
2019-01-03T11:05:18.243Z,33.53
2019-01-03T11:07:48.083Z,36.87
2019-01-03T11:10:17.885Z,30.15
2019-01-03T11:12:47.818Z,38.63
2019-01-03T11:15:17.768Z,36.63
2019-01-03T11:17:47.547Z,32.45
2019-01-03T11:20:17.632Z,38.37
2019-01-03T11:22:47.547Z,32.43
2019-01-03T11:25:17.667Z,28.20
2019-01-03T11:27:47.170Z,32.77
2019-01-03T11:30:16.686Z,29.83
2019-01-03T11:32:46.324Z,37.13
2019-01-03T11:35:16.299Z,32.37
2019-01-03T11:37:46.459Z,24.70
2019-01-03T11:40:17.224Z,27.75
2019-01-03T11:42:47.010Z,22.75
2019-01-03T11:45:16.806Z,46.37
2019-01-03T11:47:46.416Z,31.47
2019-01-03T11:50:16.182Z,18.23
2019-01-03T11:52:45.833Z,27.50
2019-01-03T11:55:15.922Z,25.27
2019-01-03T11:57:45.402Z,24.10
2019-01-03T12:00:15.070Z,20.67
2019-01-03T12:02:44.550Z,26.83
2019-01-03T12:05:14.455Z,25.10
2019-01-03T12:07:44.314Z,23.33
2019-01-03T12:10:14.091Z,21.47
2019-01-03T12:12:44.345Z,17.12
2019-01-03T12:15:14.021Z,13.50
2019-01-03T12:17:44.445Z,11.77
2019-01-03T12:20:14.261Z,19.50
2019-01-03T12:22:43.759Z,22.95
2019-01-03T12:25:13.554Z,16.83
2019-01-03T12:27:43.653Z,17.17
2019-01-03T12:30:13.146Z,14.27
2019-01-03T12:32:43.012Z,20.63
2019-01-03T12:35:12.655Z,15.37
2019-01-03T12:37:42.445Z,9.03
2019-01-03T12:40:12.588Z,14.43
2019-01-03T12:42:42.980Z,16.77
2019-01-03T12:45:12.473Z,11.30
2019-01-03T12:47:43.126Z,17.67
2019-01-03T12:50:12.656Z,19.13
2019-01-03T12:52:42.979Z,14.20
2019-01-03T12:55:12.851Z,12.93
2019-01-03T12:57:42.516Z,7.35
2019-01-03T13:00:13.199Z,9.00
2019-01-03T13:02:43.257Z,10.83
2019-01-03T13:05:13.145Z,16.00
2019-01-03T13:07:42.718Z,12.37
2019-01-03T13:10:13.096Z,9.08
2019-01-03T13:12:42.778Z,16.20
2019-01-03T13:15:12.821Z,12.73
2019-01-03T13:17:43.214Z,13.18
2019-01-03T13:20:12.940Z,12.97
2019-01-03T13:22:43.383Z,15.00
2019-01-03T13:25:13.491Z,14.25
2019-01-03T13:27:43.454Z,11.33
2019-01-03T13:30:13.234Z,21.25
2019-01-03T13:32:43.405Z,15.38
2019-01-03T13:35:13.482Z,8.25
2019-01-03T13:37:43.482Z,15.23
2019-01-03T13:40:14.579Z,10.28
2019-01-03T13:42:44.421Z,8.93
2019-01-03T13:45:14.207Z,6.17
2019-01-03T13:47:44.341Z,14.80
2019-01-03T13:50:14.202Z,14.67
2019-01-03T13:52:43.986Z,14.60
2019-01-03T13:55:13.548Z,11.22
2019-01-03T13:57:43.590Z,11.33
2019-01-03T14:00:14.027Z,12.90
2019-01-03T14:02:44.145Z,14.55
2019-01-03T14:05:13.945Z,5.13
2019-01-03T14:07:44.024Z,10.70
2019-01-03T14:10:14.935Z,10.87
2019-01-03T14:12:44.419Z,10.57
2019-01-03T14:15:14.339Z,11.33
2019-01-03T14:17:44.385Z,9.63
2019-01-03T14:20:14.744Z,13.63
2019-01-03T14:22:44.350Z,12.20
2019-01-03T14:25:14.520Z,19.60
2019-01-03T14:27:44.347Z,12.88
2019-01-03T14:30:14.049Z,20.03
2019-01-03T14:32:43.550Z,19.70
2019-01-03T14:35:13.943Z,17.43
2019-01-03T14:37:43.484Z,32.83
2019-01-03T14:40:13.386Z,21.47
2019-01-03T14:42:43.156Z,14.80
2019-01-03T14:45:12.906Z,14.80
2019-01-03T14:47:42.860Z,16.40
2019-01-03T14:50:13.156Z,14.03
2019-01-03T14:52:42.646Z,16.70
2019-01-03T14:55:12.352Z,12.17
2019-01-03T14:57:41.906Z,31.67
2019-01-03T15:00:13.936Z,10.33
2019-01-03T15:02:43.709Z,15.97
2019-01-03T15:05:14.029Z,27.27
2019-01-03T15:07:43.664Z,25.90
2019-01-03T15:10:13.279Z,41.48
2019-01-03T15:12:43.071Z,21.87
2019-01-03T15:15:12.986Z,36.93
2019-01-03T15:17:43.447Z,27.00
2019-01-03T15:20:14.282Z,22.03
2019-01-03T15:22:44.105Z,21.27
2019-01-03T15:25:14.002Z,9.50
2019-01-03T15:27:43.570Z,22.23
2019-01-03T15:30:13.102Z,15.27
2019-01-03T15:32:42.945Z,20.03
2019-01-03T15:35:12.791Z,18.60
2019-01-03T15:37:44.696Z,14.17
2019-01-03T15:40:16.762Z,12.40
2019-01-03T15:42:46.880Z,12.33
2019-01-03T15:45:16.495Z,30.37
2019-01-03T15:47:46.964Z,15.70
2019-01-03T15:50:16.496Z,17.10
2019-01-03T15:52:46.438Z,12.95
2019-01-03T15:55:16.461Z,15.98
2019-01-03T15:57:46.895Z,16.23
2019-01-03T16:00:16.429Z,27.83
2019-01-03T16:02:46.851Z,21.93
2019-01-03T16:05:16.750Z,19.53
2019-01-03T16:07:46.851Z,19.65
2019-01-03T16:10:16.558Z,23.93
2019-01-03T16:12:46.459Z,17.07
2019-01-03T16:15:16.502Z,14.38
2019-01-03T16:17:46.848Z,14.45
2019-01-03T16:20:16.807Z,14.37
2019-01-03T16:22:46.744Z,21.07
2019-01-03T16:25:16.581Z,17.40
2019-01-03T16:27:46.553Z,16.77
2019-01-03T16:30:16.494Z,19.23
2019-01-03T16:32:46.674Z,17.23
2019-01-03T16:35:18.695Z,17.25
2019-01-03T16:37:49.026Z,23.53
2019-01-03T16:40:19.026Z,14.00
2019-01-03T16:42:48.789Z,17.52
2019-01-03T16:45:18.393Z,12.57
2019-01-03T16:47:48.193Z,19.00
2019-01-03T16:50:18.444Z,17.40
2019-01-03T16:52:47.972Z,18.20
2019-01-03T16:55:17.603Z,16.23
2019-01-03T16:57:47.102Z,20.37
2019-01-03T17:00:17.283Z,15.63
2019-01-03T17:02:47.085Z,19.50
2019-01-03T17:05:17.915Z,9.53
2019-01-03T17:07:47.767Z,13.47
2019-01-03T17:10:18.704Z,21.73
2019-01-03T17:12:48.289Z,12.80
2019-01-03T17:15:18.353Z,16.63
2019-01-03T17:17:47.895Z,10.70
2019-01-03T17:20:17.463Z,23.87
2019-01-03T17:22:47.631Z,11.00
2019-01-03T17:25:18.198Z,17.40
2019-01-03T17:27:47.718Z,15.53
2019-01-03T17:30:18.038Z,18.50
2019-01-03T17:32:47.721Z,20.60
2019-01-03T17:35:17.524Z,14.98
2019-01-03T17:37:48.172Z,17.32
2019-01-03T17:40:19.095Z,21.63
2019-01-03T17:42:48.731Z,20.50
2019-01-03T17:45:18.774Z,17.87
2019-01-03T17:47:48.977Z,14.67
2019-01-03T17:50:19.524Z,16.37
2019-01-03T17:52:49.506Z,14.63
2019-01-03T17:55:22.600Z,16.63
2019-01-03T17:57:52.291Z,15.67
2019-01-03T18:00:23.346Z,15.83
2019-01-03T18:02:53.232Z,19.12
2019-01-03T18:05:22.770Z,17.30
2019-01-03T18:07:52.869Z,19.07
2019-01-03T18:10:22.515Z,22.47
2019-01-03T18:12:52.234Z,17.20
2019-01-03T18:15:23.511Z,22.83
2019-01-03T18:17:54.664Z,23.90
2019-01-03T18:20:24.532Z,18.03
2019-01-03T18:22:55.126Z,12.98
2019-01-03T18:25:24.685Z,17.67
2019-01-03T18:27:59.617Z,18.33
2019-01-03T18:30:29.634Z,13.68
2019-01-03T18:32:59.179Z,14.40
2019-01-03T18:35:28.731Z,24.30
2019-01-03T18:37:58.441Z,20.20
2019-01-03T18:40:28.540Z,13.20
2019-01-03T18:42:58.205Z,18.03
2019-01-03T18:45:28.051Z,13.73
2019-01-03T18:47:57.770Z,20.93
2019-01-03T18:50:27.314Z,16.33
2019-01-03T18:52:58.367Z,16.70
2019-01-03T18:55:27.997Z,18.70
2019-01-03T18:57:58.286Z,19.87
2019-01-03T19:00:32.352Z,19.73
2019-01-03T19:03:03.724Z,13.77
2019-01-03T19:05:33.266Z,12.43
2019-01-03T19:08:02.763Z,19.45
2019-01-03T19:10:33.979Z,14.47
2019-01-03T19:13:05.322Z,11.93
2019-01-03T19:15:34.918Z,20.83
2019-01-03T19:18:04.674Z,21.68
2019-01-03T19:20:34.555Z,18.73
2019-01-03T19:23:04.061Z,14.47
2019-01-03T19:25:33.690Z,12.45
2019-01-03T19:28:03.263Z,12.90
2019-01-03T19:30:32.870Z,19.42
2019-01-03T19:33:03.368Z,23.83
2019-01-03T19:35:33.688Z,17.32
2019-01-03T19:38:03.263Z,19.77
2019-01-03T19:40:32.807Z,17.83
2019-01-03T19:43:06.669Z,19.80
2019-01-03T19:45:37.075Z,16.83
2019-01-03T19:48:06.607Z,15.93
2019-01-03T19:50:37.050Z,16.70
2019-01-03T19:53:06.824Z,15.80
2019-01-03T19:55:36.793Z,13.68
2019-01-03T19:58:06.405Z,17.60
2019-01-03T20:00:36.048Z,18.25
2019-01-03T20:03:06.094Z,13.07
2019-01-03T20:05:35.999Z,11.60
2019-01-03T20:08:05.562Z,13.50
2019-01-03T20:10:35.181Z,16.47
2019-01-03T20:13:04.815Z,14.13
2019-01-03T20:15:34.366Z,12.63
2019-01-03T20:18:04.104Z,16.15
2019-01-03T20:20:33.917Z,12.07
2019-01-03T20:23:03.955Z,11.57
2019-01-03T20:25:35.233Z,8.53
2019-01-03T20:28:05.028Z,13.43
2019-01-03T20:30:34.873Z,11.33
2019-01-03T20:33:04.376Z,17.23
2019-01-03T20:35:34.190Z,12.77
2019-01-03T20:38:03.890Z,10.60
2019-01-03T20:40:33.696Z,12.80
2019-01-03T20:43:03.581Z,16.10
2019-01-03T20:45:33.197Z,13.28
2019-01-03T20:48:05.213Z,13.00
2019-01-03T20:50:34.933Z,7.53
2019-01-03T20:53:04.863Z,15.97
2019-01-03T20:55:38.137Z,10.53
2019-01-03T20:58:07.988Z,18.80
2019-01-03T21:00:37.949Z,14.95
2019-01-03T21:03:08.641Z,12.20
2019-01-03T21:05:40.001Z,12.53
2019-01-03T21:08:10.991Z,14.93
2019-01-03T21:10:40.874Z,14.63
2019-01-03T21:13:10.792Z,16.77
2019-01-03T21:15:40.539Z,13.37
2019-01-03T21:18:10.378Z,15.17
2019-01-03T21:20:43.212Z,11.20
2019-01-03T21:23:13.054Z,10.90
2019-01-03T21:25:43.072Z,13.00
2019-01-03T21:28:12.672Z,13.43
2019-01-03T21:30:43.052Z,13.75
2019-01-03T21:33:12.554Z,14.97
2019-01-03T21:35:42.502Z,9.80
2019-01-03T21:38:12.041Z,10.07
2019-01-03T21:40:42.137Z,16.33
2019-01-03T21:43:11.742Z,9.43
2019-01-03T21:45:41.590Z,11.37
2019-01-03T21:48:11.249Z,15.03
2019-01-03T21:50:41.048Z,8.00
2019-01-03T21:53:10.869Z,16.55
2019-01-03T21:55:40.704Z,7.65
2019-01-03T21:58:10.200Z,11.53
2019-01-03T22:00:40.332Z,12.70
2019-01-03T22:03:10.337Z,16.77
2019-01-03T22:05:39.891Z,12.00
2019-01-03T22:08:09.776Z,10.60
2019-01-03T22:10:39.703Z,13.23
2019-01-03T22:13:14.002Z,12.63
2019-01-03T22:15:45.275Z,15.80
2019-01-03T22:18:16.106Z,11.38
2019-01-03T22:20:46.985Z,13.43
2019-01-03T22:23:17.418Z,20.70
2019-01-03T22:25:49.407Z,12.73
2019-01-03T22:28:19.031Z,13.73
2019-01-03T22:30:48.852Z,13.30
2019-01-03T22:33:19.679Z,17.87
2019-01-03T22:35:49.276Z,13.68
2019-01-03T22:38:19.091Z,6.83
2019-01-03T22:40:48.924Z,12.30
2019-01-03T22:43:18.492Z,13.13
2019-01-03T22:45:48.389Z,18.93
2019-01-03T22:48:18.237Z,16.37
2019-01-03T22:50:48.060Z,10.35
2019-01-03T22:53:17.910Z,8.80
2019-01-03T22:55:47.357Z,9.03
2019-01-03T22:58:17.159Z,9.73
2019-01-03T23:00:51.672Z,19.30
2019-01-03T23:03:21.241Z,12.00
2019-01-03T23:05:50.809Z,16.87
2019-01-03T23:08:20.327Z,9.10
2019-01-03T23:14:27.595Z,9.60
2019-01-03T23:16:57.455Z,10.90
2019-01-03T23:19:38.188Z,14.57
2019-01-03T23:22:07.812Z,11.97
2019-01-03T23:24:38.306Z,11.90
2019-01-03T23:27:07.810Z,13.83
2019-01-03T23:29:37.655Z,14.97
2019-01-03T23:32:07.387Z,12.63
2019-01-03T23:34:37.294Z,11.67
2019-01-03T23:37:07.081Z,15.30
2019-01-03T23:39:37.033Z,10.07
2019-01-03T23:42:07.099Z,11.77
2019-01-03T23:44:36.843Z,14.43
2019-01-03T23:47:06.932Z,12.57
2019-01-03T23:49:36.862Z,13.00
2019-01-03T23:52:06.791Z,9.23
2019-01-03T23:54:36.609Z,10.87
2019-01-03T23:57:06.126Z,10.23
2019-01-03T23:59:35.728Z,14.80
